sensor_id;sensor_type;location;lat;lon;timestamp;temperature;humidity
24252;DHT22;12380;51.118;4.176;2023-03-30T00:01:42;15.30;99.90
24252;DHT22;12380;51.118;4.176;2023-03-30T00:04:09;15.30;99.90
24252;DHT22;12380;51.118;4.176;2023-03-30T00:06:36;15.40;99.90
24252;DHT22;12380;51.118;4.176;2023-03-30T00:09:04;15.30;99.90
24252;DHT22;12380;51.118;4.176;2023-03-30T00:11:31;15.30;99.90
24252;DHT22;12380;51.118;4.176;2023-03-30T00:13:59;15.40;99.90
24252;DHT22;12380;51.118;4.176;2023-03-30T00:16:26;15.30;99.90
24252;DHT22;12380;51.118;4.176;2023-03-30T00:18:54;15.30;99.90
24252;DHT22;12380;51.118;4.176;2023-03-30T00:21:20;15.30;99.90
24252;DHT22;12380;51.118;4.176;2023-03-30T00:23:48;15.30;99.90
24252;DHT22;12380;51.118;4.176;2023-03-30T00:26:15;15.20;99.90
24252;DHT22;12380;51.118;4.176;2023-03-30T00:28:41;15.30;99.90
24252;DHT22;12380;51.118;4.176;2023-03-30T00:31:07;15.10;99.90
24252;DHT22;12380;51.118;4.176;2023-03-30T00:33:32;15.10;99.90
24252;DHT22;12380;51.118;4.176;2023-03-30T00:36:01;14.90;99.90
24252;DHT22;12380;51.118;4.176;2023-03-30T00:38:27;15.10;99.90
24252;DHT22;12380;51.118;4.176;2023-03-30T00:40:58;15.10;99.90
24252;DHT22;12380;51.118;4.176;2023-03-30T00:43:25;15.10;99.90
24252;DHT22;12380;51.118;4.176;2023-03-30T00:45:51;15.00;99.90
24252;DHT22;12380;51.118;4.176;2023-03-30T00:51:01;15.00;99.90
24252;DHT22;12380;51.118;4.176;2023-03-30T00:53:38;15.00;99.90
24252;DHT22;12380;51.118;4.176;2023-03-30T00:56:05;14.70;99.90
24252;DHT22;12380;51.118;4.176;2023-03-30T00:58:32;14.80;99.90
24252;DHT22;12380;51.118;4.176;2023-03-30T01:01:03;14.70;99.90
24252;DHT22;12380;51.118;4.176;2023-03-30T01:03:37;14.50;99.90
24252;DHT22;12380;51.118;4.176;2023-03-30T01:06:05;14.40;99.90
24252;DHT22;12380;51.118;4.176;2023-03-30T01:08:33;14.40;99.90
24252;DHT22;12380;51.118;4.176;2023-03-30T01:11:00;14.50;99.90
24252;DHT22;12380;51.118;4.176;2023-03-30T01:13:30;14.40;99.90
24252;DHT22;12380;51.118;4.176;2023-03-30T01:26:41;14.20;99.90
24252;DHT22;12380;51.118;4.176;2023-03-30T01:35:39;14.10;99.90
24252;DHT22;12380;51.118;4.176;2023-03-30T01:38:39;14.10;99.90
24252;DHT22;12380;51.118;4.176;2023-03-30T01:41:18;14.00;99.90
24252;DHT22;12380;51.118;4.176;2023-03-30T01:46:56;13.80;99.90
24252;DHT22;12380;51.118;4.176;2023-03-30T01:49:34;13.60;99.90
24252;DHT22;12380;51.118;4.176;2023-03-30T01:52:12;13.50;99.90
24252;DHT22;12380;51.118;4.176;2023-03-30T01:54:49;13.60;99.90
24252;DHT22;12380;51.118;4.176;2023-03-30T01:57:30;13.60;99.90
24252;DHT22;12380;51.118;4.176;2023-03-30T02:00:06;13.60;99.90
24252;DHT22;12380;51.118;4.176;2023-03-30T02:02:45;13.70;99.90
24252;DHT22;12380;51.118;4.176;2023-03-30T02:05:15;13.70;99.90
24252;DHT22;12380;51.118;4.176;2023-03-30T02:07:54;13.70;99.90
24252;DHT22;12380;51.118;4.176;2023-03-30T02:10:24;13.80;99.90
24252;DHT22;12380;51.118;4.176;2023-03-30T02:12:56;13.80;99.90
24252;DHT22;12380;51.118;4.176;2023-03-30T02:15:24;13.90;99.90
24252;DHT22;12380;51.118;4.176;2023-03-30T02:17:51;13.80;99.90
24252;DHT22;12380;51.118;4.176;2023-03-30T02:20:19;13.70;99.90
24252;DHT22;12380;51.118;4.176;2023-03-30T02:22:45;13.80;99.90
24252;DHT22;12380;51.118;4.176;2023-03-30T02:25:15;13.90;99.90
24252;DHT22;12380;51.118;4.176;2023-03-30T02:27:43;14.00;99.90
24252;DHT22;12380;51.118;4.176;2023-03-30T02:30:12;14.00;99.90
24252;DHT22;12380;51.118;4.176;2023-03-30T02:32:46;13.90;99.90
24252;DHT22;12380;51.118;4.176;2023-03-30T02:35:31;13.90;99.90
24252;DHT22;12380;51.118;4.176;2023-03-30T02:44:17;13.90;99.90
24252;DHT22;12380;51.118;4.176;2023-03-30T02:49:21;13.90;99.90
24252;DHT22;12380;51.118;4.176;2023-03-30T02:54:49;13.90;99.90
24252;DHT22;12380;51.118;4.176;2023-03-30T02:57:33;13.90;99.90
24252;DHT22;12380;51.118;4.176;2023-03-30T03:00:05;13.90;99.90
24252;DHT22;12380;51.118;4.176;2023-03-30T03:02:43;14.00;99.90
24252;DHT22;12380;51.118;4.176;2023-03-30T03:05:11;14.00;99.90
24252;DHT22;12380;51.118;4.176;2023-03-30T03:07:39;13.90;99.90
24252;DHT22;12380;51.118;4.176;2023-03-30T03:10:06;13.90;99.90
24252;DHT22;12380;51.118;4.176;2023-03-30T03:12:32;13.90;99.90
24252;DHT22;12380;51.118;4.176;2023-03-30T03:15:01;14.00;99.90
24252;DHT22;12380;51.118;4.176;2023-03-30T03:17:28;13.90;99.90
24252;DHT22;12380;51.118;4.176;2023-03-30T03:20:02;13.90;99.90
24252;DHT22;12380;51.118;4.176;2023-03-30T03:22:29;13.70;99.90
24252;DHT22;12380;51.118;4.176;2023-03-30T03:24:55;13.70;99.90
24252;DHT22;12380;51.118;4.176;2023-03-30T03:27:23;13.70;99.90
24252;DHT22;12380;51.118;4.176;2023-03-30T03:29:49;13.60;99.90
24252;DHT22;12380;51.118;4.176;2023-03-30T03:32:17;13.50;99.90
24252;DHT22;12380;51.118;4.176;2023-03-30T03:34:46;13.50;99.90
24252;DHT22;12380;51.118;4.176;2023-03-30T03:37:12;13.50;99.90
24252;DHT22;12380;51.118;4.176;2023-03-30T03:39:40;13.60;99.90
24252;DHT22;12380;51.118;4.176;2023-03-30T03:42:06;13.50;99.90
24252;DHT22;12380;51.118;4.176;2023-03-30T03:44:32;13.60;99.90
24252;DHT22;12380;51.118;4.176;2023-03-30T03:47:00;13.60;99.90
24252;DHT22;12380;51.118;4.176;2023-03-30T03:49:26;13.50;99.90
24252;DHT22;12380;51.118;4.176;2023-03-30T03:51:53;13.60;99.90
24252;DHT22;12380;51.118;4.176;2023-03-30T03:54:19;13.70;99.90
24252;DHT22;12380;51.118;4.176;2023-03-30T03:56:45;13.70;99.90
24252;DHT22;12380;51.118;4.176;2023-03-30T03:59:11;13.70;99.90
24252;DHT22;12380;51.118;4.176;2023-03-30T04:01:37;13.60;99.90
24252;DHT22;12380;51.118;4.176;2023-03-30T04:04:04;13.50;99.90
24252;DHT22;12380;51.118;4.176;2023-03-30T04:06:31;13.70;99.90
24252;DHT22;12380;51.118;4.176;2023-03-30T04:08:57;13.70;99.90
24252;DHT22;12380;51.118;4.176;2023-03-30T04:11:23;13.70;99.90
24252;DHT22;12380;51.118;4.176;2023-03-30T04:13:49;13.70;99.90
24252;DHT22;12380;51.118;4.176;2023-03-30T04:16:14;13.70;99.90
24252;DHT22;12380;51.118;4.176;2023-03-30T04:18:40;13.60;99.90
24252;DHT22;12380;51.118;4.176;2023-03-30T04:21:06;13.50;99.90
24252;DHT22;12380;51.118;4.176;2023-03-30T04:23:38;13.30;99.90
24252;DHT22;12380;51.118;4.176;2023-03-30T04:26:06;13.40;99.90
24252;DHT22;12380;51.118;4.176;2023-03-30T04:28:33;13.20;99.90
24252;DHT22;12380;51.118;4.176;2023-03-30T04:31:06;13.20;99.90
24252;DHT22;12380;51.118;4.176;2023-03-30T04:33:36;13.20;99.90
24252;DHT22;12380;51.118;4.176;2023-03-30T04:36:04;13.10;99.90
24252;DHT22;12380;51.118;4.176;2023-03-30T04:38:30;13.20;99.90
24252;DHT22;12380;51.118;4.176;2023-03-30T04:40:58;13.20;99.90
24252;DHT22;12380;51.118;4.176;2023-03-30T04:43:24;13.10;99.90
24252;DHT22;12380;51.118;4.176;2023-03-30T04:45:51;13.10;99.90
24252;DHT22;12380;51.118;4.176;2023-03-30T04:48:22;13.00;99.90
24252;DHT22;12380;51.118;4.176;2023-03-30T04:50:50;13.00;99.90
24252;DHT22;12380;51.118;4.176;2023-03-30T04:53:19;13.00;99.90
24252;DHT22;12380;51.118;4.176;2023-03-30T04:55:49;13.10;99.90
24252;DHT22;12380;51.118;4.176;2023-03-30T04:58:15;12.90;99.90
24252;DHT22;12380;51.118;4.176;2023-03-30T05:00:41;12.80;99.90
24252;DHT22;12380;51.118;4.176;2023-03-30T05:03:07;12.70;99.90
24252;DHT22;12380;51.118;4.176;2023-03-30T05:05:36;12.40;99.90
24252;DHT22;12380;51.118;4.176;2023-03-30T05:08:03;12.40;99.90
24252;DHT22;12380;51.118;4.176;2023-03-30T05:10:31;12.40;99.90
24252;DHT22;12380;51.118;4.176;2023-03-30T05:13:02;12.40;99.90
24252;DHT22;12380;51.118;4.176;2023-03-30T05:15:30;12.30;99.90
24252;DHT22;12380;51.118;4.176;2023-03-30T05:17:56;12.20;99.90
24252;DHT22;12380;51.118;4.176;2023-03-30T05:20:26;12.20;99.90
24252;DHT22;12380;51.118;4.176;2023-03-30T05:22:51;12.10;99.90
24252;DHT22;12380;51.118;4.176;2023-03-30T05:25:20;12.10;99.90
24252;DHT22;12380;51.118;4.176;2023-03-30T05:27:48;12.20;99.90
24252;DHT22;12380;51.118;4.176;2023-03-30T05:30:14;12.10;99.90
24252;DHT22;12380;51.118;4.176;2023-03-30T05:32:40;12.10;99.90
24252;DHT22;12380;51.118;4.176;2023-03-30T05:35:06;12.10;99.90
24252;DHT22;12380;51.118;4.176;2023-03-30T05:37:36;12.00;99.90
24252;DHT22;12380;51.118;4.176;2023-03-30T05:40:05;12.00;99.90
24252;DHT22;12380;51.118;4.176;2023-03-30T05:42:34;12.00;99.90
24252;DHT22;12380;51.118;4.176;2023-03-30T05:45:03;12.00;99.90
24252;DHT22;12380;51.118;4.176;2023-03-30T05:47:31;12.00;99.90
24252;DHT22;12380;51.118;4.176;2023-03-30T05:50:00;12.10;99.90
24252;DHT22;12380;51.118;4.176;2023-03-30T05:52:26;12.10;99.90
24252;DHT22;12380;51.118;4.176;2023-03-30T05:54:52;12.20;99.90
24252;DHT22;12380;51.118;4.176;2023-03-30T05:57:18;12.20;99.90
24252;DHT22;12380;51.118;4.176;2023-03-30T05:59:44;12.20;99.90
24252;DHT22;12380;51.118;4.176;2023-03-30T06:02:10;12.20;99.90
24252;DHT22;12380;51.118;4.176;2023-03-30T06:04:37;12.20;99.90
24252;DHT22;12380;51.118;4.176;2023-03-30T06:07:03;12.30;99.90
24252;DHT22;12380;51.118;4.176;2023-03-30T06:09:29;12.20;99.90
24252;DHT22;12380;51.118;4.176;2023-03-30T06:11:55;12.30;99.90
24252;DHT22;12380;51.118;4.176;2023-03-30T06:14:24;12.30;99.90
24252;DHT22;12380;51.118;4.176;2023-03-30T06:16:50;12.30;99.90
24252;DHT22;12380;51.118;4.176;2023-03-30T06:19:18;12.30;99.90
24252;DHT22;12380;51.118;4.176;2023-03-30T06:21:46;12.40;99.90
24252;DHT22;12380;51.118;4.176;2023-03-30T06:24:12;12.40;99.90
24252;DHT22;12380;51.118;4.176;2023-03-30T06:26:38;12.50;99.90
24252;DHT22;12380;51.118;4.176;2023-03-30T06:29:05;12.60;99.90
24252;DHT22;12380;51.118;4.176;2023-03-30T06:31:31;12.60;99.90
24252;DHT22;12380;51.118;4.176;2023-03-30T06:33:57;12.60;99.90
24252;DHT22;12380;51.118;4.176;2023-03-30T06:36:23;12.70;99.90
24252;DHT22;12380;51.118;4.176;2023-03-30T06:38:48;12.70;99.90
24252;DHT22;12380;51.118;4.176;2023-03-30T06:41:14;12.80;99.90
24252;DHT22;12380;51.118;4.176;2023-03-30T06:43:40;12.80;99.90
24252;DHT22;12380;51.118;4.176;2023-03-30T06:46:08;12.80;99.90
24252;DHT22;12380;51.118;4.176;2023-03-30T06:48:37;12.90;99.90
24252;DHT22;12380;51.118;4.176;2023-03-30T06:51:02;13.00;99.90
24252;DHT22;12380;51.118;4.176;2023-03-30T06:53:28;13.10;99.90
24252;DHT22;12380;51.118;4.176;2023-03-30T06:55:56;13.30;99.90
24252;DHT22;12380;51.118;4.176;2023-03-30T06:58:24;13.50;99.90
24252;DHT22;12380;51.118;4.176;2023-03-30T07:00:50;13.40;99.90
24252;DHT22;12380;51.118;4.176;2023-03-30T07:03:16;13.50;99.90
24252;DHT22;12380;51.118;4.176;2023-03-30T07:05:49;13.40;99.90
24252;DHT22;12380;51.118;4.176;2023-03-30T07:08:18;13.30;99.90
24252;DHT22;12380;51.118;4.176;2023-03-30T07:10:47;13.10;99.90
24252;DHT22;12380;51.118;4.176;2023-03-30T07:13:13;13.00;99.90
24252;DHT22;12380;51.118;4.176;2023-03-30T07:15:41;13.00;99.90
24252;DHT22;12380;51.118;4.176;2023-03-30T07:18:06;13.00;99.90
24252;DHT22;12380;51.118;4.176;2023-03-30T07:20:32;13.20;99.90
24252;DHT22;12380;51.118;4.176;2023-03-30T07:22:58;13.50;99.90
24252;DHT22;12380;51.118;4.176;2023-03-30T07:25:26;13.70;99.90
24252;DHT22;12380;51.118;4.176;2023-03-30T07:27:52;13.70;99.90
24252;DHT22;12380;51.118;4.176;2023-03-30T07:30:18;13.60;99.90
24252;DHT22;12380;51.118;4.176;2023-03-30T07:32:47;13.60;99.90
24252;DHT22;12380;51.118;4.176;2023-03-30T07:35:14;13.70;99.90
24252;DHT22;12380;51.118;4.176;2023-03-30T07:37:40;14.10;99.90
24252;DHT22;12380;51.118;4.176;2023-03-30T07:40:06;14.30;99.90
24252;DHT22;12380;51.118;4.176;2023-03-30T07:42:36;14.50;99.90
24252;DHT22;12380;51.118;4.176;2023-03-30T07:45:03;14.30;99.90
24252;DHT22;12380;51.118;4.176;2023-03-30T07:47:29;14.50;99.90
24252;DHT22;12380;51.118;4.176;2023-03-30T07:49:54;15.40;99.90
24252;DHT22;12380;51.118;4.176;2023-03-30T07:52:20;15.30;1.00
24252;DHT22;12380;51.118;4.176;2023-03-30T07:54:48;14.90;99.90
24252;DHT22;12380;51.118;4.176;2023-03-30T07:57:14;14.60;99.90
24252;DHT22;12380;51.118;4.176;2023-03-30T07:59:40;15.30;1.00
24252;DHT22;12380;51.118;4.176;2023-03-30T08:02:13;15.50;99.90
24252;DHT22;12380;51.118;4.176;2023-03-30T08:04:39;15.30;1.00
24252;DHT22;12380;51.118;4.176;2023-03-30T08:07:08;15.20;99.90
24252;DHT22;12380;51.118;4.176;2023-03-30T08:09:35;15.10;99.90
24252;DHT22;12380;51.118;4.176;2023-03-30T08:12:01;14.60;88.60
24252;DHT22;12380;51.118;4.176;2023-03-30T08:14:27;14.20;99.90
24252;DHT22;12380;51.118;4.176;2023-03-30T08:16:54;14.20;99.90
24252;DHT22;12380;51.118;4.176;2023-03-30T08:19:22;14.20;99.90
24252;DHT22;12380;51.118;4.176;2023-03-30T08:21:50;14.30;99.90
24252;DHT22;12380;51.118;4.176;2023-03-30T08:24:16;14.00;99.90
24252;DHT22;12380;51.118;4.176;2023-03-30T08:26:41;14.00;99.90
24252;DHT22;12380;51.118;4.176;2023-03-30T08:29:08;14.40;99.90
24252;DHT22;12380;51.118;4.176;2023-03-30T08:31:34;14.90;99.90
24252;DHT22;12380;51.118;4.176;2023-03-30T08:34:02;15.00;99.90
24252;DHT22;12380;51.118;4.176;2023-03-30T08:36:29;15.90;99.90
24252;DHT22;12380;51.118;4.176;2023-03-30T08:38:58;16.50;99.90
24252;DHT22;12380;51.118;4.176;2023-03-30T08:43:57;16.30;99.90
24252;DHT22;12380;51.118;4.176;2023-03-30T08:46:25;17.00;99.90
24252;DHT22;12380;51.118;4.176;2023-03-30T08:48:51;17.10;99.90
24252;DHT22;12380;51.118;4.176;2023-03-30T08:51:21;16.60;1.00
24252;DHT22;12380;51.118;4.176;2023-03-30T08:54:08;15.90;1.00
24252;DHT22;12380;51.118;4.176;2023-03-30T08:56:41;15.70;1.00
24252;DHT22;12380;51.118;4.176;2023-03-30T08:59:30;15.00;99.90
24252;DHT22;12380;51.118;4.176;2023-03-30T09:09:56;14.50;99.90
24252;DHT22;12380;51.118;4.176;2023-03-30T09:17:58;14.20;99.90
24252;DHT22;12380;51.118;4.176;2023-03-30T09:20:31;14.50;99.90
24252;DHT22;12380;51.118;4.176;2023-03-30T09:23:02;14.50;99.90
24252;DHT22;12380;51.118;4.176;2023-03-30T09:25:39;14.70;99.90
24252;DHT22;12380;51.118;4.176;2023-03-30T09:28:22;14.50;99.90
24252;DHT22;12380;51.118;4.176;2023-03-30T09:31:01;14.50;99.90
24252;DHT22;12380;51.118;4.176;2023-03-30T09:38:43;16.20;99.90
24252;DHT22;12380;51.118;4.176;2023-03-30T09:43:56;15.10;99.90
24252;DHT22;12380;51.118;4.176;2023-03-30T09:46:22;14.60;99.90
24252;DHT22;12380;51.118;4.176;2023-03-30T09:48:50;14.90;99.90
24252;DHT22;12380;51.118;4.176;2023-03-30T09:51:25;15.40;99.90
24252;DHT22;12380;51.118;4.176;2023-03-30T09:54:03;15.30;99.90
24252;DHT22;12380;51.118;4.176;2023-03-30T09:59:28;15.00;99.90
24252;DHT22;12380;51.118;4.176;2023-03-30T10:05:00;14.90;99.90
24252;DHT22;12380;51.118;4.176;2023-03-30T10:07:35;14.60;99.90
24252;DHT22;12380;51.118;4.176;2023-03-30T10:10:35;14.70;99.90
24252;DHT22;12380;51.118;4.176;2023-03-30T10:13:16;14.60;99.90
24252;DHT22;12380;51.118;4.176;2023-03-30T10:15:45;14.30;99.90
24252;DHT22;12380;51.118;4.176;2023-03-30T10:20:46;14.60;99.90
24252;DHT22;12380;51.118;4.176;2023-03-30T10:23:17;15.00;99.90
24252;DHT22;12380;51.118;4.176;2023-03-30T10:25:44;15.20;99.90
24252;DHT22;12380;51.118;4.176;2023-03-30T10:28:19;15.30;99.90
24252;DHT22;12380;51.118;4.176;2023-03-30T10:33:22;15.70;99.90
24252;DHT22;12380;51.118;4.176;2023-03-30T10:35:52;15.60;1.00
24252;DHT22;12380;51.118;4.176;2023-03-30T10:38:23;15.60;1.00
24252;DHT22;12380;51.118;4.176;2023-03-30T10:40:58;16.30;1.00
24252;DHT22;12380;51.118;4.176;2023-03-30T10:43:28;16.90;99.90
24252;DHT22;12380;51.118;4.176;2023-03-30T10:45:56;16.50;1.00
24252;DHT22;12380;51.118;4.176;2023-03-30T10:51:09;16.30;99.90
24252;DHT22;12380;51.118;4.176;2023-03-30T11:04:45;16.00;99.90
24252;DHT22;12380;51.118;4.176;2023-03-30T11:07:36;15.90;1.00
24252;DHT22;12380;51.118;4.176;2023-03-30T11:10:17;16.40;1.00
24252;DHT22;12380;51.118;4.176;2023-03-30T11:12:51;17.30;99.90
24252;DHT22;12380;51.118;4.176;2023-03-30T11:15:27;17.90;99.90
24252;DHT22;12380;51.118;4.176;2023-03-30T11:20:44;18.40;99.90
24252;DHT22;12380;51.118;4.176;2023-03-30T11:26:07;16.70;99.90
24252;DHT22;12380;51.118;4.176;2023-03-30T11:31:32;16.40;99.90
24252;DHT22;12380;51.118;4.176;2023-03-30T11:34:17;16.70;99.90
24252;DHT22;12380;51.118;4.176;2023-03-30T11:37:05;16.40;1.00
24252;DHT22;12380;51.118;4.176;2023-03-30T11:39:40;16.30;99.90
24252;DHT22;12380;51.118;4.176;2023-03-30T11:42:15;15.90;99.90
24252;DHT22;12380;51.118;4.176;2023-03-30T11:44:43;16.20;1.00
24252;DHT22;12380;51.118;4.176;2023-03-30T12:06:26;16.50;99.90
24252;DHT22;12380;51.118;4.176;2023-03-30T12:17:01;16.40;99.90
24252;DHT22;12380;51.118;4.176;2023-03-30T12:19:40;16.40;1.00
24252;DHT22;12380;51.118;4.176;2023-03-30T12:22:22;17.10;99.90
24252;DHT22;12380;51.118;4.176;2023-03-30T12:27:34;17.70;99.90
24252;DHT22;12380;51.118;4.176;2023-03-30T12:30:22;17.90;99.90
24252;DHT22;12380;51.118;4.176;2023-03-30T12:33:50;17.70;99.90
24252;DHT22;12380;51.118;4.176;2023-03-30T12:35:59;18.20;99.90
24252;DHT22;12380;51.118;4.176;2023-03-30T12:38:36;18.10;99.90
24252;DHT22;12380;51.118;4.176;2023-03-30T12:41:16;17.70;99.90
24252;DHT22;12380;51.118;4.176;2023-03-30T12:46:38;16.90;99.90
24252;DHT22;12380;51.118;4.176;2023-03-30T12:52:10;14.80;99.90
24252;DHT22;12380;51.118;4.176;2023-03-30T12:54:45;14.70;99.90
24252;DHT22;12380;51.118;4.176;2023-03-30T12:57:18;15.30;99.90
24252;DHT22;12380;51.118;4.176;2023-03-30T13:05:42;17.00;1.00
24252;DHT22;12380;51.118;4.176;2023-03-30T13:08:29;17.60;99.90
24252;DHT22;12380;51.118;4.176;2023-03-30T13:13:58;17.40;99.90
24252;DHT22;12380;51.118;4.176;2023-03-30T13:16:47;17.70;1.00
24252;DHT22;12380;51.118;4.176;2023-03-30T13:24:58;17.30;99.90
24252;DHT22;12380;51.118;4.176;2023-03-30T13:27:33;17.50;1.00
24252;DHT22;12380;51.118;4.176;2023-03-30T13:49:13;16.50;1.00
24252;DHT22;12380;51.118;4.176;2023-03-30T13:51:37;16.90;99.90
24252;DHT22;12380;51.118;4.176;2023-03-30T13:56:45;16.40;1.00
24252;DHT22;12380;51.118;4.176;2023-03-30T13:59:20;16.30;1.00
24252;DHT22;12380;51.118;4.176;2023-03-30T14:01:53;16.40;1.00
24252;DHT22;12380;51.118;4.176;2023-03-30T14:04:27;16.70;99.90
24252;DHT22;12380;51.118;4.176;2023-03-30T14:06:53;16.50;99.90
24252;DHT22;12380;51.118;4.176;2023-03-30T14:09:26;16.50;99.90
24252;DHT22;12380;51.118;4.176;2023-03-30T14:12:00;16.20;99.90
24252;DHT22;12380;51.118;4.176;2023-03-30T14:14:35;16.50;1.00
24252;DHT22;12380;51.118;4.176;2023-03-30T14:17:14;16.90;1.00
24252;DHT22;12380;51.118;4.176;2023-03-30T14:22:23;17.80;1.00
24252;DHT22;12380;51.118;4.176;2023-03-30T14:24:58;18.10;1.00
24252;DHT22;12380;51.118;4.176;2023-03-30T14:27:24;17.90;1.00
24252;DHT22;12380;51.118;4.176;2023-03-30T14:29:52;17.60;1.00
24252;DHT22;12380;51.118;4.176;2023-03-30T14:32:20;17.10;1.00
24252;DHT22;12380;51.118;4.176;2023-03-30T14:34:51;17.00;99.90
24252;DHT22;12380;51.118;4.176;2023-03-30T14:37:19;16.80;1.00
24252;DHT22;12380;51.118;4.176;2023-03-30T14:39:52;16.80;99.90
24252;DHT22;12380;51.118;4.176;2023-03-30T14:42:26;16.60;99.90
24252;DHT22;12380;51.118;4.176;2023-03-30T14:44:54;16.70;1.00
24252;DHT22;12380;51.118;4.176;2023-03-30T14:47:26;16.80;99.90
24252;DHT22;12380;51.118;4.176;2023-03-30T14:49:55;17.20;1.00
24252;DHT22;12380;51.118;4.176;2023-03-30T14:52:25;17.40;1.00
24252;DHT22;12380;51.118;4.176;2023-03-30T14:54:55;17.50;99.90
24252;DHT22;12380;51.118;4.176;2023-03-30T14:57:24;17.60;1.00
24252;DHT22;12380;51.118;4.176;2023-03-30T14:59:56;17.20;1.00
24252;DHT22;12380;51.118;4.176;2023-03-30T15:04:51;16.80;99.90
24252;DHT22;12380;51.118;4.176;2023-03-30T15:07:18;16.50;99.90
24252;DHT22;12380;51.118;4.176;2023-03-30T15:09:46;16.30;99.90
24252;DHT22;12380;51.118;4.176;2023-03-30T15:12:38;16.10;99.90
24252;DHT22;12380;51.118;4.176;2023-03-30T15:15:06;16.20;99.90
24252;DHT22;12380;51.118;4.176;2023-03-30T15:17:33;16.20;1.00
24252;DHT22;12380;51.118;4.176;2023-03-30T15:20:03;16.50;1.00
24252;DHT22;12380;51.118;4.176;2023-03-30T15:22:44;17.00;1.00
24252;DHT22;12380;51.118;4.176;2023-03-30T15:25:14;17.20;99.90
24252;DHT22;12380;51.118;4.176;2023-03-30T15:27:43;17.20;99.90
24252;DHT22;12380;51.118;4.176;2023-03-30T15:32:54;17.60;1.00
24252;DHT22;12380;51.118;4.176;2023-03-30T15:35:26;17.20;1.00
24252;DHT22;12380;51.118;4.176;2023-03-30T15:37:54;16.70;1.00
24252;DHT22;12380;51.118;4.176;2023-03-30T15:45:52;16.30;99.90
24252;DHT22;12380;51.118;4.176;2023-03-30T15:48:29;16.30;99.90
24252;DHT22;12380;51.118;4.176;2023-03-30T15:56:32;16.20;1.00
24252;DHT22;12380;51.118;4.176;2023-03-30T15:58:59;16.10;99.90
24252;DHT22;12380;51.118;4.176;2023-03-30T16:01:42;16.50;1.00
24252;DHT22;12380;51.118;4.176;2023-03-30T16:04:15;16.60;99.90
24252;DHT22;12380;51.118;4.176;2023-03-30T16:06:41;16.80;99.90
24252;DHT22;12380;51.118;4.176;2023-03-30T16:09:07;17.00;99.90
24252;DHT22;12380;51.118;4.176;2023-03-30T16:11:35;16.60;99.90
24252;DHT22;12380;51.118;4.176;2023-03-30T16:14:04;16.20;1.00
24252;DHT22;12380;51.118;4.176;2023-03-30T16:16:34;16.10;1.00
24252;DHT22;12380;51.118;4.176;2023-03-30T16:19:02;16.10;99.90
24252;DHT22;12380;51.118;4.176;2023-03-30T16:21:28;16.10;99.90
24252;DHT22;12380;51.118;4.176;2023-03-30T16:23:56;16.20;99.90
24252;DHT22;12380;51.118;4.176;2023-03-30T16:26:24;16.00;99.90
24252;DHT22;12380;51.118;4.176;2023-03-30T16:28:52;15.90;99.90
24252;DHT22;12380;51.118;4.176;2023-03-30T16:31:21;16.00;99.90
24252;DHT22;12380;51.118;4.176;2023-03-30T16:33:47;16.00;99.90
24252;DHT22;12380;51.118;4.176;2023-03-30T16:36:18;15.90;99.90
24252;DHT22;12380;51.118;4.176;2023-03-30T16:38:45;15.90;99.90
24252;DHT22;12380;51.118;4.176;2023-03-30T16:41:29;15.80;99.90
24252;DHT22;12380;51.118;4.176;2023-03-30T16:43:55;15.70;99.90
24252;DHT22;12380;51.118;4.176;2023-03-30T16:46:21;15.50;99.90
24252;DHT22;12380;51.118;4.176;2023-03-30T16:48:47;15.40;1.00
24252;DHT22;12380;51.118;4.176;2023-03-30T16:51:14;15.30;99.90
24252;DHT22;12380;51.118;4.176;2023-03-30T16:53:40;15.20;99.90
24252;DHT22;12380;51.118;4.176;2023-03-30T16:56:16;15.20;99.90
24252;DHT22;12380;51.118;4.176;2023-03-30T16:58:42;15.20;99.90
24252;DHT22;12380;51.118;4.176;2023-03-30T17:01:10;15.10;99.90
24252;DHT22;12380;51.118;4.176;2023-03-30T17:03:37;15.00;99.90
24252;DHT22;12380;51.118;4.176;2023-03-30T17:06:04;15.10;99.90
24252;DHT22;12380;51.118;4.176;2023-03-30T17:08:30;15.10;99.90
24252;DHT22;12380;51.118;4.176;2023-03-30T17:10:58;15.10;99.90
24252;DHT22;12380;51.118;4.176;2023-03-30T17:13:29;15.10;99.90
24252;DHT22;12380;51.118;4.176;2023-03-30T17:15:55;15.00;99.90
24252;DHT22;12380;51.118;4.176;2023-03-30T17:18:24;14.80;99.90
24252;DHT22;12380;51.118;4.176;2023-03-30T17:20:53;14.80;99.90
24252;DHT22;12380;51.118;4.176;2023-03-30T17:23:23;14.90;99.90
24252;DHT22;12380;51.118;4.176;2023-03-30T17:25:51;14.90;99.90
24252;DHT22;12380;51.118;4.176;2023-03-30T17:28:25;14.90;99.90
24252;DHT22;12380;51.118;4.176;2023-03-30T17:30:53;14.80;99.90
24252;DHT22;12380;51.118;4.176;2023-03-30T17:33:19;14.70;99.90
24252;DHT22;12380;51.118;4.176;2023-03-30T17:35:51;14.60;99.90
24252;DHT22;12380;51.118;4.176;2023-03-30T17:38:18;14.60;99.90
24252;DHT22;12380;51.118;4.176;2023-03-30T17:40:44;14.40;99.90
24252;DHT22;12380;51.118;4.176;2023-03-30T17:43:13;14.40;99.90
24252;DHT22;12380;51.118;4.176;2023-03-30T17:45:40;14.30;99.90
24252;DHT22;12380;51.118;4.176;2023-03-30T17:48:15;14.30;99.90
24252;DHT22;12380;51.118;4.176;2023-03-30T17:50:43;14.20;99.90
24252;DHT22;12380;51.118;4.176;2023-03-30T17:53:14;14.10;99.90
24252;DHT22;12380;51.118;4.176;2023-03-30T17:55:45;14.00;99.90
24252;DHT22;12380;51.118;4.176;2023-03-30T17:58:22;14.00;99.90
24252;DHT22;12380;51.118;4.176;2023-03-30T18:00:49;13.90;99.90
24252;DHT22;12380;51.118;4.176;2023-03-30T18:03:18;13.70;99.90
24252;DHT22;12380;51.118;4.176;2023-03-30T18:05:49;13.70;99.90
24252;DHT22;12380;51.118;4.176;2023-03-30T18:08:19;13.80;99.90
24252;DHT22;12380;51.118;4.176;2023-03-30T18:10:51;13.70;99.90
24252;DHT22;12380;51.118;4.176;2023-03-30T18:13:21;13.60;99.90
24252;DHT22;12380;51.118;4.176;2023-03-30T18:15:51;13.50;99.90
24252;DHT22;12380;51.118;4.176;2023-03-30T18:18:21;13.40;99.90
24252;DHT22;12380;51.118;4.176;2023-03-30T18:21:22;13.30;99.90
24252;DHT22;12380;51.118;4.176;2023-03-30T18:23:40;13.30;99.90
24252;DHT22;12380;51.118;4.176;2023-03-30T18:26:06;13.30;99.90
24252;DHT22;12380;51.118;4.176;2023-03-30T18:28:35;13.40;99.90
24252;DHT22;12380;51.118;4.176;2023-03-30T18:31:03;13.30;99.90
24252;DHT22;12380;51.118;4.176;2023-03-30T18:33:29;13.40;99.90
24252;DHT22;12380;51.118;4.176;2023-03-30T18:35:55;13.40;99.90
24252;DHT22;12380;51.118;4.176;2023-03-30T18:38:28;13.40;99.90
24252;DHT22;12380;51.118;4.176;2023-03-30T18:40:54;13.20;99.90
24252;DHT22;12380;51.118;4.176;2023-03-30T18:43:22;13.20;99.90
24252;DHT22;12380;51.118;4.176;2023-03-30T18:45:51;13.20;99.90
24252;DHT22;12380;51.118;4.176;2023-03-30T18:48:20;13.20;99.90
24252;DHT22;12380;51.118;4.176;2023-03-30T18:50:48;13.10;99.90
24252;DHT22;12380;51.118;4.176;2023-03-30T18:53:17;13.10;99.90